sensor_id;sensor_type;location;lat;lon;timestamp;P1;durP1;ratioP1;P2;durP2;ratioP2
6852;SDS011;3465;42.144;24.722;2023-10-08T00:02:15;17.57;;;7.90;;
6852;SDS011;3465;42.144;24.722;2023-10-08T00:04:47;15.60;;;7.33;;
6852;SDS011;3465;42.144;24.722;2023-10-08T00:07:15;15.10;;;7.03;;
6852;SDS011;3465;42.144;24.722;2023-10-08T00:09:46;17.27;;;7.33;;
6852;SDS011;3465;42.144;24.722;2023-10-08T00:12:12;15.07;;;6.83;;
6852;SDS011;3465;42.144;24.722;2023-10-08T00:14:38;20.33;;;7.93;;
6852;SDS011;3465;42.144;24.722;2023-10-08T00:17:10;15.87;;;6.63;;
6852;SDS011;3465;42.144;24.722;2023-10-08T00:19:36;22.40;;;8.03;;
6852;SDS011;3465;42.144;24.722;2023-10-08T00:22:03;16.10;;;6.80;;
6852;SDS011;3465;42.144;24.722;2023-10-08T00:24:31;16.87;;;7.30;;
6852;SDS011;3465;42.144;24.722;2023-10-08T00:26:58;21.30;;;7.23;;
6852;SDS011;3465;42.144;24.722;2023-10-08T00:29:25;18.00;;;6.93;;
6852;SDS011;3465;42.144;24.722;2023-10-08T00:31:51;14.10;;;6.67;;
6852;SDS011;3465;42.144;24.722;2023-10-08T00:34:21;17.33;;;7.13;;
6852;SDS011;3465;42.144;24.722;2023-10-08T00:36:47;14.97;;;7.40;;
6852;SDS011;3465;42.144;24.722;2023-10-08T00:39:14;13.67;;;6.23;;
6852;SDS011;3465;42.144;24.722;2023-10-08T00:41:44;14.47;;;7.00;;
6852;SDS011;3465;42.144;24.722;2023-10-08T00:44:11;18.27;;;6.90;;
6852;SDS011;3465;42.144;24.722;2023-10-08T00:46:41;13.93;;;6.97;;
6852;SDS011;3465;42.144;24.722;2023-10-08T00:49:13;13.10;;;6.20;;
6852;SDS011;3465;42.144;24.722;2023-10-08T00:51:56;18.10;;;6.53;;
6852;SDS011;3465;42.144;24.722;2023-10-08T00:54:38;13.73;;;6.00;;
6852;SDS011;3465;42.144;24.722;2023-10-08T00:57:18;14.60;;;6.50;;
6852;SDS011;3465;42.144;24.722;2023-10-08T00:59:49;15.47;;;6.23;;
6852;SDS011;3465;42.144;24.722;2023-10-08T01:02:24;12.60;;;5.90;;
6852;SDS011;3465;42.144;24.722;2023-10-08T01:05:12;12.63;;;5.63;;
6852;SDS011;3465;42.144;24.722;2023-10-08T01:07:40;14.13;;;5.93;;
6852;SDS011;3465;42.144;24.722;2023-10-08T01:10:13;14.20;;;5.97;;
6852;SDS011;3465;42.144;24.722;2023-10-08T01:12:44;13.17;;;5.83;;
6852;SDS011;3465;42.144;24.722;2023-10-08T01:15:19;17.27;;;6.20;;
6852;SDS011;3465;42.144;24.722;2023-10-08T01:17:49;13.17;;;5.93;;
6852;SDS011;3465;42.144;24.722;2023-10-08T01:20:24;13.93;;;5.07;;
6852;SDS011;3465;42.144;24.722;2023-10-08T01:23:05;11.50;;;5.43;;
6852;SDS011;3465;42.144;24.722;2023-10-08T01:25:38;14.10;;;5.53;;
6852;SDS011;3465;42.144;24.722;2023-10-08T01:28:27;11.63;;;5.10;;
6852;SDS011;3465;42.144;24.722;2023-10-08T01:30:57;10.20;;;4.80;;
6852;SDS011;3465;42.144;24.722;2023-10-08T01:33:28;12.37;;;5.27;;
6852;SDS011;3465;42.144;24.722;2023-10-08T01:35:54;9.20;;;5.17;;
6852;SDS011;3465;42.144;24.722;2023-10-08T01:38:20;11.73;;;5.37;;
6852;SDS011;3465;42.144;24.722;2023-10-08T01:40:51;10.70;;;4.90;;
6852;SDS011;3465;42.144;24.722;2023-10-08T01:43:17;10.17;;;4.80;;
6852;SDS011;3465;42.144;24.722;2023-10-08T01:45:43;9.00;;;4.30;;
6852;SDS011;3465;42.144;24.722;2023-10-08T01:48:13;10.20;;;4.93;;
6852;SDS011;3465;42.144;24.722;2023-10-08T01:50:57;12.50;;;5.20;;
6852;SDS011;3465;42.144;24.722;2023-10-08T01:53:29;10.50;;;4.80;;
6852;SDS011;3465;42.144;24.722;2023-10-08T01:55:55;12.47;;;4.93;;
6852;SDS011;3465;42.144;24.722;2023-10-08T01:58:21;8.70;;;4.40;;
6852;SDS011;3465;42.144;24.722;2023-10-08T02:00:48;7.83;;;4.23;;
6852;SDS011;3465;42.144;24.722;2023-10-08T02:03:15;10.63;;;4.30;;
6852;SDS011;3465;42.144;24.722;2023-10-08T02:05:43;10.30;;;4.50;;
6852;SDS011;3465;42.144;24.722;2023-10-08T02:08:09;10.93;;;4.83;;
6852;SDS011;3465;42.144;24.722;2023-10-08T02:10:36;8.27;;;4.53;;
6852;SDS011;3465;42.144;24.722;2023-10-08T02:13:03;8.30;;;4.57;;
6852;SDS011;3465;42.144;24.722;2023-10-08T02:15:30;8.43;;;4.47;;
6852;SDS011;3465;42.144;24.722;2023-10-08T02:17:55;7.93;;;4.10;;
6852;SDS011;3465;42.144;24.722;2023-10-08T02:20:22;9.53;;;4.40;;
6852;SDS011;3465;42.144;24.722;2023-10-08T02:22:47;8.17;;;4.67;;
6852;SDS011;3465;42.144;24.722;2023-10-08T02:25:14;11.27;;;4.90;;
6852;SDS011;3465;42.144;24.722;2023-10-08T02:27:40;10.20;;;4.90;;
6852;SDS011;3465;42.144;24.722;2023-10-08T02:30:07;10.27;;;5.17;;
6852;SDS011;3465;42.144;24.722;2023-10-08T02:32:35;13.80;;;5.87;;
6852;SDS011;3465;42.144;24.722;2023-10-08T02:35:02;20.10;;;6.90;;
6852;SDS011;3465;42.144;24.722;2023-10-08T02:37:28;16.50;;;7.00;;
6852;SDS011;3465;42.144;24.722;2023-10-08T02:39:53;21.00;;;7.93;;
6852;SDS011;3465;42.144;24.722;2023-10-08T02:42:19;13.87;;;6.77;;
6852;SDS011;3465;42.144;24.722;2023-10-08T02:44:47;17.20;;;7.00;;
6852;SDS011;3465;42.144;24.722;2023-10-08T02:47:12;17.10;;;6.53;;
6852;SDS011;3465;42.144;24.722;2023-10-08T02:49:47;19.37;;;6.53;;
6852;SDS011;3465;42.144;24.722;2023-10-08T02:52:17;12.00;;;5.53;;
6852;SDS011;3465;42.144;24.722;2023-10-08T02:54:43;9.97;;;5.67;;
6852;SDS011;3465;42.144;24.722;2023-10-08T02:57:08;10.43;;;5.03;;
6852;SDS011;3465;42.144;24.722;2023-10-08T02:59:40;13.17;;;5.00;;
6852;SDS011;3465;42.144;24.722;2023-10-08T03:02:10;9.33;;;5.07;;
6852;SDS011;3465;42.144;24.722;2023-10-08T03:04:43;11.63;;;5.17;;
6852;SDS011;3465;42.144;24.722;2023-10-08T03:07:13;8.43;;;4.70;;
6852;SDS011;3465;42.144;24.722;2023-10-08T03:09:58;9.63;;;4.27;;
6852;SDS011;3465;42.144;24.722;2023-10-08T03:12:53;13.90;;;4.97;;
6852;SDS011;3465;42.144;24.722;2023-10-08T03:15:18;8.70;;;4.63;;
6852;SDS011;3465;42.144;24.722;2023-10-08T03:17:54;10.67;;;4.57;;
6852;SDS011;3465;42.144;24.722;2023-10-08T03:20:22;10.43;;;4.60;;
6852;SDS011;3465;42.144;24.722;2023-10-08T03:23:15;12.30;;;5.27;;
6852;SDS011;3465;42.144;24.722;2023-10-08T03:25:58;15.63;;;5.30;;
6852;SDS011;3465;42.144;24.722;2023-10-08T03:28:47;11.67;;;4.90;;
6852;SDS011;3465;42.144;24.722;2023-10-08T03:31:22;14.23;;;5.30;;
6852;SDS011;3465;42.144;24.722;2023-10-08T03:34:00;13.17;;;5.47;;
6852;SDS011;3465;42.144;24.722;2023-10-08T03:36:26;13.17;;;5.40;;
6852;SDS011;3465;42.144;24.722;2023-10-08T03:39:00;10.30;;;5.27;;
6852;SDS011;3465;42.144;24.722;2023-10-08T03:41:38;19.07;;;5.90;;
6852;SDS011;3465;42.144;24.722;2023-10-08T03:44:07;12.50;;;5.77;;
6852;SDS011;3465;42.144;24.722;2023-10-08T03:46:39;15.17;;;6.13;;
6852;SDS011;3465;42.144;24.722;2023-10-08T03:49:08;20.90;;;6.30;;
6852;SDS011;3465;42.144;24.722;2023-10-08T03:51:46;20.03;;;6.47;;
6852;SDS011;3465;42.144;24.722;2023-10-08T03:54:13;14.67;;;6.50;;
6852;SDS011;3465;42.144;24.722;2023-10-08T03:56:43;12.03;;;5.50;;
6852;SDS011;3465;42.144;24.722;2023-10-08T03:59:13;13.20;;;4.57;;
6852;SDS011;3465;42.144;24.722;2023-10-08T04:01:43;10.53;;;4.93;;
6852;SDS011;3465;42.144;24.722;2023-10-08T04:04:09;8.67;;;4.30;;
6852;SDS011;3465;42.144;24.722;2023-10-08T04:06:40;14.57;;;4.57;;
6852;SDS011;3465;42.144;24.722;2023-10-08T04:09:16;13.13;;;4.67;;
6852;SDS011;3465;42.144;24.722;2023-10-08T04:11:43;11.07;;;4.63;;
6852;SDS011;3465;42.144;24.722;2023-10-08T04:14:12;8.70;;;3.97;;
6852;SDS011;3465;42.144;24.722;2023-10-08T04:16:37;10.10;;;4.00;;
6852;SDS011;3465;42.144;24.722;2023-10-08T04:19:06;10.03;;;4.03;;
6852;SDS011;3465;42.144;24.722;2023-10-08T04:21:32;7.87;;;3.57;;
6852;SDS011;3465;42.144;24.722;2023-10-08T04:23:59;5.80;;;3.67;;
6852;SDS011;3465;42.144;24.722;2023-10-08T04:26:30;7.80;;;4.27;;
6852;SDS011;3465;42.144;24.722;2023-10-08T04:28:57;11.13;;;3.90;;
6852;SDS011;3465;42.144;24.722;2023-10-08T04:31:26;9.70;;;3.90;;
6852;SDS011;3465;42.144;24.722;2023-10-08T04:34:04;15.37;;;4.30;;
6852;SDS011;3465;42.144;24.722;2023-10-08T04:36:47;9.47;;;3.80;;
6852;SDS011;3465;42.144;24.722;2023-10-08T04:39:19;9.33;;;4.13;;
6852;SDS011;3465;42.144;24.722;2023-10-08T04:41:51;7.37;;;3.87;;
6852;SDS011;3465;42.144;24.722;2023-10-08T04:44:19;9.07;;;4.13;;
6852;SDS011;3465;42.144;24.722;2023-10-08T04:46:47;6.13;;;3.80;;
6852;SDS011;3465;42.144;24.722;2023-10-08T04:49:17;6.23;;;3.77;;
6852;SDS011;3465;42.144;24.722;2023-10-08T04:51:52;8.20;;;3.87;;
6852;SDS011;3465;42.144;24.722;2023-10-08T04:54:27;9.23;;;4.17;;
6852;SDS011;3465;42.144;24.722;2023-10-08T04:57:03;10.03;;;4.07;;
6852;SDS011;3465;42.144;24.722;2023-10-08T04:59:31;10.30;;;5.10;;
6852;SDS011;3465;42.144;24.722;2023-10-08T05:02:02;12.73;;;4.10;;
6852;SDS011;3465;42.144;24.722;2023-10-08T05:04:38;10.80;;;3.80;;
6852;SDS011;3465;42.144;24.722;2023-10-08T05:07:16;7.23;;;4.10;;
6852;SDS011;3465;42.144;24.722;2023-10-08T05:09:43;11.40;;;4.28;;
6852;SDS011;3465;42.144;24.722;2023-10-08T05:12:12;10.50;;;3.80;;
6852;SDS011;3465;42.144;24.722;2023-10-08T05:14:57;6.88;;;3.42;;
6852;SDS011;3465;42.144;24.722;2023-10-08T05:17:46;9.55;;;3.90;;
6852;SDS011;3465;42.144;24.722;2023-10-08T05:20:19;8.50;;;3.22;;
6852;SDS011;3465;42.144;24.722;2023-10-08T05:23:10;12.35;;;3.42;;
6852;SDS011;3465;42.144;24.722;2023-10-08T05:26:06;9.15;;;3.92;;
6852;SDS011;3465;42.144;24.722;2023-10-08T05:28:32;8.63;;;3.28;;
6852;SDS011;3465;42.144;24.722;2023-10-08T05:31:12;6.80;;;3.63;;
6852;SDS011;3465;42.144;24.722;2023-10-08T05:33:41;9.05;;;3.30;;
6852;SDS011;3465;42.144;24.722;2023-10-08T05:36:40;6.78;;;3.30;;
6852;SDS011;3465;42.144;24.722;2023-10-08T05:39:35;6.57;;;3.45;;
6852;SDS011;3465;42.144;24.722;2023-10-08T05:42:03;6.55;;;3.35;;
6852;SDS011;3465;42.144;24.722;2023-10-08T05:44:40;9.23;;;3.42;;
6852;SDS011;3465;42.144;24.722;2023-10-08T05:47:11;13.05;;;4.38;;
6852;SDS011;3465;42.144;24.722;2023-10-08T05:49:59;9.90;;;3.67;;
6852;SDS011;3465;42.144;24.722;2023-10-08T05:52:37;5.15;;;3.00;;
6852;SDS011;3465;42.144;24.722;2023-10-08T05:55:22;6.63;;;3.15;;
6852;SDS011;3465;42.144;24.722;2023-10-08T05:57:47;6.45;;;3.38;;
6852;SDS011;3465;42.144;24.722;2023-10-08T06:00:17;11.77;;;3.42;;
6852;SDS011;3465;42.144;24.722;2023-10-08T06:03:03;13.38;;;3.67;;
6852;SDS011;3465;42.144;24.722;2023-10-08T06:05:35;17.35;;;5.60;;
6852;SDS011;3465;42.144;24.722;2023-10-08T06:08:08;13.32;;;3.45;;
6852;SDS011;3465;42.144;24.722;2023-10-08T06:10:39;5.15;;;3.20;;
6852;SDS011;3465;42.144;24.722;2023-10-08T06:13:05;9.23;;;3.40;;
6852;SDS011;3465;42.144;24.722;2023-10-08T06:16:00;10.27;;;3.30;;
6852;SDS011;3465;42.144;24.722;2023-10-08T06:18:29;7.30;;;3.67;;
6852;SDS011;3465;42.144;24.722;2023-10-08T06:20:57;8.85;;;3.22;;
6852;SDS011;3465;42.144;24.722;2023-10-08T06:23:32;7.25;;;3.63;;
6852;SDS011;3465;42.144;24.722;2023-10-08T06:25:57;5.68;;;3.38;;
6852;SDS011;3465;42.144;24.722;2023-10-08T06:28:24;9.07;;;3.30;;
6852;SDS011;3465;42.144;24.722;2023-10-08T06:30:54;7.43;;;2.72;;
6852;SDS011;3465;42.144;24.722;2023-10-08T06:33:22;8.98;;;3.25;;
6852;SDS011;3465;42.144;24.722;2023-10-08T06:35:50;10.65;;;3.53;;
6852;SDS011;3465;42.144;24.722;2023-10-08T06:38:39;5.38;;;3.40;;
6852;SDS011;3465;42.144;24.722;2023-10-08T06:41:05;14.90;;;4.25;;
6852;SDS011;3465;42.144;24.722;2023-10-08T06:43:38;12.43;;;3.63;;
6852;SDS011;3465;42.144;24.722;2023-10-08T06:46:04;13.80;;;3.80;;
6852;SDS011;3465;42.144;24.722;2023-10-08T06:48:37;9.57;;;4.15;;
6852;SDS011;3465;42.144;24.722;2023-10-08T06:51:07;12.95;;;5.38;;
6852;SDS011;3465;42.144;24.722;2023-10-08T06:53:39;29.17;;;7.38;;
6852;SDS011;3465;42.144;24.722;2023-10-08T06:56:05;27.05;;;7.97;;
6852;SDS011;3465;42.144;24.722;2023-10-08T06:58:31;25.58;;;9.27;;
6852;SDS011;3465;42.144;24.722;2023-10-08T07:00:59;21.42;;;8.38;;
6852;SDS011;3465;42.144;24.722;2023-10-08T07:03:31;22.70;;;9.75;;
6852;SDS011;3465;42.144;24.722;2023-10-08T07:05:58;24.77;;;10.15;;
6852;SDS011;3465;42.144;24.722;2023-10-08T07:08:32;24.27;;;9.32;;
6852;SDS011;3465;42.144;24.722;2023-10-08T07:10:58;22.65;;;9.35;;
6852;SDS011;3465;42.144;24.722;2023-10-08T07:13:26;23.88;;;8.00;;
6852;SDS011;3465;42.144;24.722;2023-10-08T07:15:54;17.67;;;7.78;;
6852;SDS011;3465;42.144;24.722;2023-10-08T07:18:21;13.80;;;5.90;;
6852;SDS011;3465;42.144;24.722;2023-10-08T07:20:53;9.27;;;4.70;;
6852;SDS011;3465;42.144;24.722;2023-10-08T07:23:22;8.75;;;4.22;;
6852;SDS011;3465;42.144;24.722;2023-10-08T07:25:57;11.65;;;3.85;;
6852;SDS011;3465;42.144;24.722;2023-10-08T07:28:40;11.77;;;3.95;;
6852;SDS011;3465;42.144;24.722;2023-10-08T07:31:16;8.10;;;3.22;;
6852;SDS011;3465;42.144;24.722;2023-10-08T07:33:43;11.98;;;3.70;;
6852;SDS011;3465;42.144;24.722;2023-10-08T07:36:12;7.68;;;3.05;;
6852;SDS011;3465;42.144;24.722;2023-10-08T07:38:40;10.55;;;3.72;;
6852;SDS011;3465;42.144;24.722;2023-10-08T07:41:09;32.85;;;4.93;;
6852;SDS011;3465;42.144;24.722;2023-10-08T07:43:38;12.73;;;3.88;;
6852;SDS011;3465;42.144;24.722;2023-10-08T07:46:04;10.77;;;3.80;;
6852;SDS011;3465;42.144;24.722;2023-10-08T07:48:30;7.88;;;3.10;;
6852;SDS011;3465;42.144;24.722;2023-10-08T07:50:56;11.68;;;3.67;;
6852;SDS011;3465;42.144;24.722;2023-10-08T07:53:23;31.13;;;4.30;;
6852;SDS011;3465;42.144;24.722;2023-10-08T07:55:49;34.88;;;4.50;;
6852;SDS011;3465;42.144;24.722;2023-10-08T07:58:16;18.10;;;3.67;;
6852;SDS011;3465;42.144;24.722;2023-10-08T08:00:42;21.48;;;4.07;;
6852;SDS011;3465;42.144;24.722;2023-10-08T08:03:19;20.33;;;3.55;;
6852;SDS011;3465;42.144;24.722;2023-10-08T08:05:45;10.80;;;3.63;;
6852;SDS011;3465;42.144;24.722;2023-10-08T08:08:12;15.10;;;3.70;;
6852;SDS011;3465;42.144;24.722;2023-10-08T08:10:43;7.50;;;3.47;;
6852;SDS011;3465;42.144;24.722;2023-10-08T08:13:09;15.90;;;3.70;;
6852;SDS011;3465;42.144;24.722;2023-10-08T08:15:34;14.00;;;3.78;;
6852;SDS011;3465;42.144;24.722;2023-10-08T08:18:06;10.68;;;3.95;;
6852;SDS011;3465;42.144;24.722;2023-10-08T08:20:34;9.05;;;3.33;;
6852;SDS011;3465;42.144;24.722;2023-10-08T08:23:04;10.98;;;4.20;;
6852;SDS011;3465;42.144;24.722;2023-10-08T08:25:38;7.53;;;3.78;;
6852;SDS011;3465;42.144;24.722;2023-10-08T08:28:25;9.13;;;3.70;;
6852;SDS011;3465;42.144;24.722;2023-10-08T08:30:54;10.82;;;4.15;;
6852;SDS011;3465;42.144;24.722;2023-10-08T08:33:20;9.02;;;3.90;;
6852;SDS011;3465;42.144;24.722;2023-10-08T08:35:59;15.38;;;3.92;;
6852;SDS011;3465;42.144;24.722;2023-10-08T08:38:30;17.95;;;4.22;;
6852;SDS011;3465;42.144;24.722;2023-10-08T08:41:06;13.93;;;4.43;;
6852;SDS011;3465;42.144;24.722;2023-10-08T08:43:35;23.98;;;5.72;;
6852;SDS011;3465;42.144;24.722;2023-10-08T08:46:04;20.08;;;5.03;;
6852;SDS011;3465;42.144;24.722;2023-10-08T08:48:35;16.70;;;4.75;;
6852;SDS011;3465;42.144;24.722;2023-10-08T08:51:01;37.13;;;5.38;;
6852;SDS011;3465;42.144;24.722;2023-10-08T08:53:27;16.30;;;4.70;;
6852;SDS011;3465;42.144;24.722;2023-10-08T08:55:54;14.32;;;4.45;;
6852;SDS011;3465;42.144;24.722;2023-10-08T08:58:20;18.45;;;4.95;;
6852;SDS011;3465;42.144;24.722;2023-10-08T09:00:47;19.10;;;4.30;;
6852;SDS011;3465;42.144;24.722;2023-10-08T09:03:17;17.40;;;4.05;;
6852;SDS011;3465;42.144;24.722;2023-10-08T09:05:44;19.92;;;4.93;;
6852;SDS011;3465;42.144;24.722;2023-10-08T09:08:14;15.80;;;4.38;;
6852;SDS011;3465;42.144;24.722;2023-10-08T09:10:43;11.60;;;3.72;;
6852;SDS011;3465;42.144;24.722;2023-10-08T09:13:21;14.10;;;3.90;;
6852;SDS011;3465;42.144;24.722;2023-10-08T09:15:50;13.13;;;3.83;;
6852;SDS011;3465;42.144;24.722;2023-10-08T09:18:16;16.15;;;4.60;;
6852;SDS011;3465;42.144;24.722;2023-10-08T09:20:43;10.88;;;3.42;;
6852;SDS011;3465;42.144;24.722;2023-10-08T09:23:12;13.10;;;3.30;;
6852;SDS011;3465;42.144;24.722;2023-10-08T09:25:39;10.07;;;3.67;;
6852;SDS011;3465;42.144;24.722;2023-10-08T09:28:05;14.00;;;3.75;;
6852;SDS011;3465;42.144;24.722;2023-10-08T09:30:33;16.10;;;3.60;;
6852;SDS011;3465;42.144;24.722;2023-10-08T09:33:04;8.05;;;3.72;;
6852;SDS011;3465;42.144;24.722;2023-10-08T09:35:31;11.40;;;4.18;;
6852;SDS011;3465;42.144;24.722;2023-10-08T09:37:57;22.10;;;3.88;;
6852;SDS011;3465;42.144;24.722;2023-10-08T09:40:23;19.35;;;4.00;;
6852;SDS011;3465;42.144;24.722;2023-10-08T09:42:50;23.23;;;4.68;;
6852;SDS011;3465;42.144;24.722;2023-10-08T09:45:17;23.63;;;4.30;;
6852;SDS011;3465;42.144;24.722;2023-10-08T09:47:46;16.85;;;4.15;;
6852;SDS011;3465;42.144;24.722;2023-10-08T09:50:18;16.55;;;3.92;;
6852;SDS011;3465;42.144;24.722;2023-10-08T09:55:55;23.45;;;6.03;;
6852;SDS011;3465;42.144;24.722;2023-10-08T09:58:25;15.05;;;3.67;;
6852;SDS011;3465;42.144;24.722;2023-10-08T10:00:55;16.23;;;3.97;;
6852;SDS011;3465;42.144;24.722;2023-10-08T10:03:22;17.98;;;4.55;;
6852;SDS011;3465;42.144;24.722;2023-10-08T10:05:51;14.40;;;4.40;;
6852;SDS011;3465;42.144;24.722;2023-10-08T10:08:17;15.55;;;4.38;;
6852;SDS011;3465;42.144;24.722;2023-10-08T10:10:42;19.27;;;3.72;;
6852;SDS011;3465;42.144;24.722;2023-10-08T10:13:13;13.88;;;4.10;;
6852;SDS011;3465;42.144;24.722;2023-10-08T10:15:42;9.63;;;3.78;;
6852;SDS011;3465;42.144;24.722;2023-10-08T10:20:39;21.33;;;4.50;;
6852;SDS011;3465;42.144;24.722;2023-10-08T10:26:02;14.13;;;4.30;;
6852;SDS011;3465;42.144;24.722;2023-10-08T10:28:29;12.93;;;3.90;;
6852;SDS011;3465;42.144;24.722;2023-10-08T10:30:55;21.77;;;4.20;;
6852;SDS011;3465;42.144;24.722;2023-10-08T10:33:31;20.02;;;4.10;;
6852;SDS011;3465;42.144;24.722;2023-10-08T10:35:57;15.77;;;3.65;;
6852;SDS011;3465;42.144;24.722;2023-10-08T10:38:25;7.82;;;3.55;;
6852;SDS011;3465;42.144;24.722;2023-10-08T10:40:51;21.13;;;3.75;;
6852;SDS011;3465;42.144;24.722;2023-10-08T10:43:32;19.35;;;3.92;;
6852;SDS011;3465;42.144;24.722;2023-10-08T10:45:59;12.65;;;3.50;;
6852;SDS011;3465;42.144;24.722;2023-10-08T10:48:37;10.25;;;3.30;;
6852;SDS011;3465;42.144;24.722;2023-10-08T10:51:03;16.30;;;3.30;;
6852;SDS011;3465;42.144;24.722;2023-10-08T10:53:39;24.58;;;3.90;;
6852;SDS011;3465;42.144;24.722;2023-10-08T10:56:31;14.40;;;3.72;;
6852;SDS011;3465;42.144;24.722;2023-10-08T10:59:01;10.70;;;3.35;;
6852;SDS011;3465;42.144;24.722;2023-10-08T11:01:42;7.32;;;3.05;;
6852;SDS011;3465;42.144;24.722;2023-10-08T11:04:12;10.60;;;3.20;;
6852;SDS011;3465;42.144;24.722;2023-10-08T11:06:43;16.92;;;3.20;;
6852;SDS011;3465;42.144;24.722;2023-10-08T11:09:10;8.50;;;3.25;;
6852;SDS011;3465;42.144;24.722;2023-10-08T11:11:41;9.52;;;3.10;;
6852;SDS011;3465;42.144;24.722;2023-10-08T11:14:11;15.05;;;3.90;;
6852;SDS011;3465;42.144;24.722;2023-10-08T11:16:43;14.55;;;3.47;;
6852;SDS011;3465;42.144;24.722;2023-10-08T11:19:10;11.32;;;3.50;;
6852;SDS011;3465;42.144;24.722;2023-10-08T11:21:49;9.23;;;2.97;;
6852;SDS011;3465;42.144;24.722;2023-10-08T11:24:27;13.15;;;3.83;;
6852;SDS011;3465;42.144;24.722;2023-10-08T11:26:58;12.25;;;3.60;;
6852;SDS011;3465;42.144;24.722;2023-10-08T11:29:50;17.95;;;3.50;;
6852;SDS011;3465;42.144;24.722;2023-10-08T11:32:23;14.88;;;3.03;;
6852;SDS011;3465;42.144;24.722;2023-10-08T11:34:56;7.03;;;3.28;;
6852;SDS011;3465;42.144;24.722;2023-10-08T11:37:28;8.75;;;3.13;;
6852;SDS011;3465;42.144;24.722;2023-10-08T11:39:53;12.07;;;3.58;;
6852;SDS011;3465;42.144;24.722;2023-10-08T11:42:23;16.23;;;3.58;;
6852;SDS011;3465;42.144;24.722;2023-10-08T11:45:01;12.52;;;3.53;;
6852;SDS011;3465;42.144;24.722;2023-10-08T11:47:46;24.00;;;4.28;;
6852;SDS011;3465;42.144;24.722;2023-10-08T11:50:16;10.15;;;3.35;;
6852;SDS011;3465;42.144;24.722;2023-10-08T11:52:44;11.93;;;3.58;;
6852;SDS011;3465;42.144;24.722;2023-10-08T11:55:12;9.80;;;3.80;;
6852;SDS011;3465;42.144;24.722;2023-10-08T11:57:53;9.02;;;3.65;;
6852;SDS011;3465;42.144;24.722;2023-10-08T12:00:19;11.25;;;2.97;;
6852;SDS011;3465;42.144;24.722;2023-10-08T12:02:45;12.52;;;3.58;;
6852;SDS011;3465;42.144;24.722;2023-10-08T12:05:11;12.05;;;3.30;;
6852;SDS011;3465;42.144;24.722;2023-10-08T12:07:46;11.13;;;3.35;;
6852;SDS011;3465;42.144;24.722;2023-10-08T12:10:13;15.63;;;4.10;;
6852;SDS011;3465;42.144;24.722;2023-10-08T12:12:41;18.02;;;3.75;;
6852;SDS011;3465;42.144;24.722;2023-10-08T12:15:07;12.68;;;3.92;;
6852;SDS011;3465;42.144;24.722;2023-10-08T12:17:34;10.18;;;3.38;;
6852;SDS011;3465;42.144;24.722;2023-10-08T12:20:05;11.35;;;3.65;;
6852;SDS011;3465;42.144;24.722;2023-10-08T12:22:48;17.52;;;3.60;;
6852;SDS011;3465;42.144;24.722;2023-10-08T12:25:14;6.88;;;3.03;;
6852;SDS011;3465;42.144;24.722;2023-10-08T12:27:40;15.20;;;3.15;;
6852;SDS011;3465;42.144;24.722;2023-10-08T12:30:05;12.25;;;3.53;;
6852;SDS011;3465;42.144;24.722;2023-10-08T12:32:38;9.77;;;3.42;;
6852;SDS011;3465;42.144;24.722;2023-10-08T12:35:07;16.25;;;4.25;;
6852;SDS011;3465;42.144;24.722;2023-10-08T12:37:39;8.30;;;3.33;;
6852;SDS011;3465;42.144;24.722;2023-10-08T12:40:06;16.90;;;4.07;;
6852;SDS011;3465;42.144;24.722;2023-10-08T12:42:50;7.22;;;3.28;;
6852;SDS011;3465;42.144;24.722;2023-10-08T12:45:17;7.43;;;3.55;;
6852;SDS011;3465;42.144;24.722;2023-10-08T12:47:51;10.57;;;3.63;;
6852;SDS011;3465;42.144;24.722;2023-10-08T12:50:18;8.23;;;3.28;;
6852;SDS011;3465;42.144;24.722;2023-10-08T12:52:54;13.75;;;3.60;;
6852;SDS011;3465;42.144;24.722;2023-10-08T12:55:29;14.70;;;3.45;;
6852;SDS011;3465;42.144;24.722;2023-10-08T12:57:55;18.00;;;3.88;;
6852;SDS011;3465;42.144;24.722;2023-10-08T13:00:31;11.30;;;3.05;;
6852;SDS011;3465;42.144;24.722;2023-10-08T13:02:56;10.10;;;3.17;;
6852;SDS011;3465;42.144;24.722;2023-10-08T13:05:23;13.88;;;3.85;;
6852;SDS011;3465;42.144;24.722;2023-10-08T13:07:55;7.93;;;3.05;;
6852;SDS011;3465;42.144;24.722;2023-10-08T13:10:25;21.02;;;3.67;;
6852;SDS011;3465;42.144;24.722;2023-10-08T13:12:51;9.27;;;3.35;;
6852;SDS011;3465;42.144;24.722;2023-10-08T13:15:16;14.10;;;3.67;;
6852;SDS011;3465;42.144;24.722;2023-10-08T13:17:42;15.48;;;3.05;;
6852;SDS011;3465;42.144;24.722;2023-10-08T13:20:10;14.50;;;3.63;;
6852;SDS011;3465;42.144;24.722;2023-10-08T13:22:37;13.90;;;3.55;;
6852;SDS011;3465;42.144;24.722;2023-10-08T13:25:03;8.48;;;3.22;;
6852;SDS011;3465;42.144;24.722;2023-10-08T13:27:30;14.05;;;3.70;;
6852;SDS011;3465;42.144;24.722;2023-10-08T13:29:56;10.13;;;3.72;;
6852;SDS011;3465;42.144;24.722;2023-10-08T13:32:21;9.38;;;3.28;;
6852;SDS011;3465;42.144;24.722;2023-10-08T13:34:46;18.67;;;3.83;;
6852;SDS011;3465;42.144;24.722;2023-10-08T13:37:12;15.55;;;4.32;;
6852;SDS011;3465;42.144;24.722;2023-10-08T13:39:40;11.80;;;3.50;;
6852;SDS011;3465;42.144;24.722;2023-10-08T13:42:06;23.35;;;3.67;;
6852;SDS011;3465;42.144;24.722;2023-10-08T13:44:31;12.55;;;3.40;;
6852;SDS011;3465;42.144;24.722;2023-10-08T13:46:57;10.65;;;3.22;;
6852;SDS011;3465;42.144;24.722;2023-10-08T13:49:25;18.70;;;3.88;;
6852;SDS011;3465;42.144;24.722;2023-10-08T13:51:57;9.45;;;3.17;;
6852;SDS011;3465;42.144;24.722;2023-10-08T13:54:23;11.02;;;3.40;;
6852;SDS011;3465;42.144;24.722;2023-10-08T13:56:54;11.35;;;3.03;;
6852;SDS011;3465;42.144;24.722;2023-10-08T13:59:20;15.98;;;2.95;;
6852;SDS011;3465;42.144;24.722;2023-10-08T14:01:49;9.15;;;3.50;;
6852;SDS011;3465;42.144;24.722;2023-10-08T14:04:19;9.40;;;3.05;;
6852;SDS011;3465;42.144;24.722;2023-10-08T14:06:48;11.90;;;3.40;;
6852;SDS011;3465;42.144;24.722;2023-10-08T14:09:17;8.88;;;2.70;;
6852;SDS011;3465;42.144;24.722;2023-10-08T14:11:50;11.75;;;3.08;;
6852;SDS011;3465;42.144;24.722;2023-10-08T14:14:17;11.55;;;3.20;;
6852;SDS011;3465;42.144;24.722;2023-10-08T14:16:45;11.38;;;2.92;;
6852;SDS011;3465;42.144;24.722;2023-10-08T14:19:17;19.08;;;3.83;;
6852;SDS011;3465;42.144;24.722;2023-10-08T14:21:43;12.50;;;3.03;;
6852;SDS011;3465;42.144;24.722;2023-10-08T14:24:17;12.95;;;3.25;;
6852;SDS011;3465;42.144;24.722;2023-10-08T14:26:43;11.05;;;2.63;;
6852;SDS011;3465;42.144;24.722;2023-10-08T14:29:09;22.55;;;3.35;;
6852;SDS011;3465;42.144;24.722;2023-10-08T14:31:42;10.32;;;2.80;;
6852;SDS011;3465;42.144;24.722;2023-10-08T14:34:09;10.88;;;2.80;;
6852;SDS011;3465;42.144;24.722;2023-10-08T14:36:40;9.13;;;3.40;;
6852;SDS011;3465;42.144;24.722;2023-10-08T14:39:24;12.18;;;3.38;;
6852;SDS011;3465;42.144;24.722;2023-10-08T14:42:08;12.13;;;3.15;;
6852;SDS011;3465;42.144;24.722;2023-10-08T14:44:52;18.17;;;3.28;;
6852;SDS011;3465;42.144;24.722;2023-10-08T14:47:19;16.48;;;3.35;;
6852;SDS011;3465;42.144;24.722;2023-10-08T14:49:44;14.52;;;3.55;;
6852;SDS011;3465;42.144;24.722;2023-10-08T14:52:11;11.35;;;3.28;;
6852;SDS011;3465;42.144;24.722;2023-10-08T14:54:37;22.80;;;4.03;;
6852;SDS011;3465;42.144;24.722;2023-10-08T14:57:03;14.45;;;3.50;;
6852;SDS011;3465;42.144;24.722;2023-10-08T14:59:30;21.75;;;3.13;;
6852;SDS011;3465;42.144;24.722;2023-10-08T15:01:57;19.20;;;3.55;;
6852;SDS011;3465;42.144;24.722;2023-10-08T15:04:23;10.93;;;3.08;;
6852;SDS011;3465;42.144;24.722;2023-10-08T15:06:53;17.17;;;3.90;;
6852;SDS011;3465;42.144;24.722;2023-10-08T15:09:22;18.83;;;3.88;;
6852;SDS011;3465;42.144;24.722;2023-10-08T15:11:49;12.48;;;3.13;;
6852;SDS011;3465;42.144;24.722;2023-10-08T15:14:18;13.40;;;3.70;;
6852;SDS011;3465;42.144;24.722;2023-10-08T15:16:48;15.00;;;3.30;;
6852;SDS011;3465;42.144;24.722;2023-10-08T15:19:20;15.10;;;3.33;;
6852;SDS011;3465;42.144;24.722;2023-10-08T15:21:49;12.63;;;3.22;;